sensor_id;sensor_type;location;lat;lon;timestamp;temperature;humidity
64987;DHT22;67903;52.108;9.358;2023-07-02T17:07:50;21.80;43.20
64987;DHT22;67903;52.108;9.358;2023-07-02T17:10:36;21.50;43.40
64987;DHT22;67903;52.108;9.358;2023-07-02T17:13:21;21.50;43.80
64987;DHT22;67903;52.108;9.358;2023-07-02T17:16:08;21.50;44.00
64987;DHT22;67903;52.108;9.358;2023-07-02T17:18:54;21.30;44.20
64987;DHT22;67903;52.108;9.358;2023-07-02T17:21:39;21.10;44.30
64987;DHT22;67903;52.108;9.358;2023-07-02T17:24:29;21.10;44.60
64987;DHT22;67903;52.108;9.358;2023-07-02T17:27:16;21.30;44.50
64987;DHT22;67903;52.108;9.358;2023-07-02T17:30:05;21.30;44.00
64987;DHT22;67903;52.108;9.358;2023-07-02T17:32:50;21.00;44.60
64987;DHT22;67903;52.108;9.358;2023-07-02T17:35:39;20.80;44.80
64987;DHT22;67903;52.108;9.358;2023-07-02T17:38:25;20.60;45.00
64987;DHT22;67903;52.108;9.358;2023-07-02T17:41:11;20.50;44.90
64987;DHT22;67903;52.108;9.358;2023-07-02T17:43:57;20.50;44.80
64987;DHT22;67903;52.108;9.358;2023-07-02T17:46:43;20.40;44.90
64987;DHT22;67903;52.108;9.358;2023-07-02T17:49:29;20.40;45.00
64987;DHT22;67903;52.108;9.358;2023-07-02T17:52:17;20.30;45.00
64987;DHT22;67903;52.108;9.358;2023-07-02T17:55:05;20.40;44.80
64987;DHT22;67903;52.108;9.358;2023-07-02T17:57:50;20.70;44.70
64987;DHT22;67903;52.108;9.358;2023-07-02T18:00:36;20.90;44.20
64987;DHT22;67903;52.108;9.358;2023-07-02T18:03:21;20.70;44.50
64987;DHT22;67903;52.108;9.358;2023-07-02T18:06:07;20.50;45.10
64987;DHT22;67903;52.108;9.358;2023-07-02T18:08:53;20.40;45.10
64987;DHT22;67903;52.108;9.358;2023-07-02T18:11:38;20.30;45.50
64987;DHT22;67903;52.108;9.358;2023-07-02T18:14:24;20.20;45.70
64987;DHT22;67903;52.108;9.358;2023-07-02T18:17:11;20.10;45.60
64987;DHT22;67903;52.108;9.358;2023-07-02T18:19:57;20.20;45.50
64987;DHT22;67903;52.108;9.358;2023-07-02T18:22:42;20.10;45.70
64987;DHT22;67903;52.108;9.358;2023-07-02T18:25:27;20.30;45.40
64987;DHT22;67903;52.108;9.358;2023-07-02T18:28:13;20.30;45.30
64987;DHT22;67903;52.108;9.358;2023-07-02T18:31:03;20.10;45.30
64987;DHT22;67903;52.108;9.358;2023-07-02T18:33:48;20.10;45.50
64987;DHT22;67903;52.108;9.358;2023-07-02T18:36:34;20.00;45.50
64987;DHT22;67903;52.108;9.358;2023-07-02T18:39:19;20.00;45.70
64987;DHT22;67903;52.108;9.358;2023-07-02T18:42:09;19.90;46.10
64987;DHT22;67903;52.108;9.358;2023-07-02T18:44:55;19.80;46.40
64987;DHT22;67903;52.108;9.358;2023-07-02T18:47:41;19.70;46.60
64987;DHT22;67903;52.108;9.358;2023-07-02T18:50:27;19.70;46.80
64987;DHT22;67903;52.108;9.358;2023-07-02T18:53:13;19.70;47.10
64987;DHT22;67903;52.108;9.358;2023-07-02T18:56:05;19.50;46.90
64987;DHT22;67903;52.108;9.358;2023-07-02T18:58:51;19.40;47.70
64987;DHT22;67903;52.108;9.358;2023-07-02T19:01:36;19.30;47.90
64987;DHT22;67903;52.108;9.358;2023-07-02T19:04:21;19.20;48.20
64987;DHT22;67903;52.108;9.358;2023-07-02T19:07:07;19.20;48.70
64987;DHT22;67903;52.108;9.358;2023-07-02T19:09:56;19.20;48.60
64987;DHT22;67903;52.108;9.358;2023-07-02T19:12:45;19.10;48.60
64987;DHT22;67903;52.108;9.358;2023-07-02T19:15:30;19.00;49.40
64987;DHT22;67903;52.108;9.358;2023-07-02T19:18:16;18.90;49.10
64987;DHT22;67903;52.108;9.358;2023-07-02T19:21:01;18.90;49.60
64987;DHT22;67903;52.108;9.358;2023-07-02T19:23:47;18.80;49.80
64987;DHT22;67903;52.108;9.358;2023-07-02T19:26:35;18.80;49.70
64987;DHT22;67903;52.108;9.358;2023-07-02T19:29:22;18.80;49.60
64987;DHT22;67903;52.108;9.358;2023-07-02T19:32:08;18.80;49.10
64987;DHT22;67903;52.108;9.358;2023-07-02T19:34:56;18.60;49.70
64987;DHT22;67903;52.108;9.358;2023-07-02T19:37:42;18.60;50.00
64987;DHT22;67903;52.108;9.358;2023-07-02T19:40:27;18.60;49.90
64987;DHT22;67903;52.108;9.358;2023-07-02T19:43:12;18.50;49.70
64987;DHT22;67903;52.108;9.358;2023-07-02T19:45:59;18.40;50.10
64987;DHT22;67903;52.108;9.358;2023-07-02T19:48:45;18.30;50.20
64987;DHT22;67903;52.108;9.358;2023-07-02T19:51:31;18.20;50.40
64987;DHT22;67903;52.108;9.358;2023-07-02T19:54:18;18.30;49.90
64987;DHT22;67903;52.108;9.358;2023-07-02T19:57:03;18.30;50.40
64987;DHT22;67903;52.108;9.358;2023-07-02T19:59:50;18.20;50.60
64987;DHT22;67903;52.108;9.358;2023-07-02T20:02:36;18.20;50.30
64987;DHT22;67903;52.108;9.358;2023-07-02T20:05:22;18.20;50.60
64987;DHT22;67903;52.108;9.358;2023-07-02T20:08:07;18.10;50.60
64987;DHT22;67903;52.108;9.358;2023-07-02T20:10:52;18.00;50.80
64987;DHT22;67903;52.108;9.358;2023-07-02T20:13:38;18.00;51.10
64987;DHT22;67903;52.108;9.358;2023-07-02T20:16:23;18.00;50.80
64987;DHT22;67903;52.108;9.358;2023-07-02T20:19:13;18.00;51.20
64987;DHT22;67903;52.108;9.358;2023-07-02T20:21:58;18.00;51.10
64987;DHT22;67903;52.108;9.358;2023-07-02T20:24:45;17.80;51.40
64987;DHT22;67903;52.108;9.358;2023-07-02T20:27:30;17.80;51.50
64987;DHT22;67903;52.108;9.358;2023-07-02T20:30:16;18.00;51.20
64987;DHT22;67903;52.108;9.358;2023-07-02T20:33:01;17.90;51.40
64987;DHT22;67903;52.108;9.358;2023-07-02T20:35:47;17.80;51.20
64987;DHT22;67903;52.108;9.358;2023-07-02T20:38:33;17.70;51.50
64987;DHT22;67903;52.108;9.358;2023-07-02T20:41:19;17.70;51.30
64987;DHT22;67903;52.108;9.358;2023-07-02T20:44:04;17.80;50.90
64987;DHT22;67903;52.108;9.358;2023-07-02T20:46:50;17.80;50.40
64987;DHT22;67903;52.108;9.358;2023-07-02T20:49:36;17.80;50.70
64987;DHT22;67903;52.108;9.358;2023-07-02T20:52:23;17.80;50.80
64987;DHT22;67903;52.108;9.358;2023-07-02T20:55:09;17.80;50.50
64987;DHT22;67903;52.108;9.358;2023-07-02T20:57:54;17.80;50.90
64987;DHT22;67903;52.108;9.358;2023-07-02T21:00:39;17.80;50.50
64987;DHT22;67903;52.108;9.358;2023-07-02T21:03:44;17.70;50.60
64987;DHT22;67903;52.108;9.358;2023-07-02T21:06:30;17.70;50.30
64987;DHT22;67903;52.108;9.358;2023-07-02T21:09:16;17.60;50.20
64987;DHT22;67903;52.108;9.358;2023-07-02T21:12:01;17.60;49.90
64987;DHT22;67903;52.108;9.358;2023-07-02T21:14:51;17.60;49.90
64987;DHT22;67903;52.108;9.358;2023-07-02T21:17:37;17.70;49.30
64987;DHT22;67903;52.108;9.358;2023-07-02T21:20:22;17.60;49.20
64987;DHT22;67903;52.108;9.358;2023-07-02T21:23:08;17.60;49.70
64987;DHT22;67903;52.108;9.358;2023-07-02T21:25:58;17.60;49.70
64987;DHT22;67903;52.108;9.358;2023-07-02T21:28:44;17.50;49.90
64987;DHT22;67903;52.108;9.358;2023-07-02T21:31:30;17.50;49.80
64987;DHT22;67903;52.108;9.358;2023-07-02T21:34:15;17.50;50.00
64987;DHT22;67903;52.108;9.358;2023-07-02T21:37:01;17.50;50.10
64987;DHT22;67903;52.108;9.358;2023-07-02T21:39:48;17.50;50.00
64987;DHT22;67903;52.108;9.358;2023-07-02T21:42:33;17.60;49.70
64987;DHT22;67903;52.108;9.358;2023-07-02T21:45:19;17.50;49.90
64987;DHT22;67903;52.108;9.358;2023-07-02T21:48:05;17.50;49.60
64987;DHT22;67903;52.108;9.358;2023-07-02T21:50:51;17.50;50.00
64987;DHT22;67903;52.108;9.358;2023-07-02T21:53:36;17.50;49.70
64987;DHT22;67903;52.108;9.358;2023-07-02T21:56:21;17.60;49.40
64987;DHT22;67903;52.108;9.358;2023-07-02T21:59:07;17.50;49.60
64987;DHT22;67903;52.108;9.358;2023-07-02T22:01:52;17.60;49.30
64987;DHT22;67903;52.108;9.358;2023-07-02T22:04:38;17.50;49.60
64987;DHT22;67903;52.108;9.358;2023-07-02T22:07:24;17.50;49.30
64987;DHT22;67903;52.108;9.358;2023-07-02T22:10:11;17.60;49.60
64987;DHT22;67903;52.108;9.358;2023-07-02T22:12:58;17.50;49.00
64987;DHT22;67903;52.108;9.358;2023-07-02T22:15:44;17.50;49.30
64987;DHT22;67903;52.108;9.358;2023-07-02T22:18:29;17.50;49.50
64987;DHT22;67903;52.108;9.358;2023-07-02T22:21:14;17.40;49.90
64987;DHT22;67903;52.108;9.358;2023-07-02T22:24:01;17.40;49.60
64987;DHT22;67903;52.108;9.358;2023-07-02T22:26:46;17.50;49.50
64987;DHT22;67903;52.108;9.358;2023-07-02T22:29:32;17.50;49.50
64987;DHT22;67903;52.108;9.358;2023-07-02T22:32:18;17.40;49.70
64987;DHT22;67903;52.108;9.358;2023-07-02T22:35:06;17.40;49.70
64987;DHT22;67903;52.108;9.358;2023-07-02T22:37:52;17.30;49.80
64987;DHT22;67903;52.108;9.358;2023-07-02T22:40:40;17.40;50.00
64987;DHT22;67903;52.108;9.358;2023-07-02T22:43:25;17.30;50.00
64987;DHT22;67903;52.108;9.358;2023-07-02T22:46:10;17.20;50.30
64987;DHT22;67903;52.108;9.358;2023-07-02T22:48:56;17.20;50.10
64987;DHT22;67903;52.108;9.358;2023-07-02T22:51:41;17.20;50.10
64987;DHT22;67903;52.108;9.358;2023-07-02T22:54:27;17.20;50.60
64987;DHT22;67903;52.108;9.358;2023-07-02T22:57:12;17.20;50.70
64987;DHT22;67903;52.108;9.358;2023-07-02T22:59:58;17.10;50.90
64987;DHT22;67903;52.108;9.358;2023-07-02T23:02:46;17.20;50.60
64987;DHT22;67903;52.108;9.358;2023-07-02T23:05:32;17.20;50.80
64987;DHT22;67903;52.108;9.358;2023-07-02T23:08:17;17.20;51.10
64987;DHT22;67903;52.108;9.358;2023-07-02T23:11:03;17.20;51.10
64987;DHT22;67903;52.108;9.358;2023-07-02T23:13:49;17.10;51.10
64987;DHT22;67903;52.108;9.358;2023-07-02T23:16:34;17.10;51.00
64987;DHT22;67903;52.108;9.358;2023-07-02T23:19:19;17.20;50.70
64987;DHT22;67903;52.108;9.358;2023-07-02T23:22:05;17.20;51.10
64987;DHT22;67903;52.108;9.358;2023-07-02T23:24:50;17.20;51.10
64987;DHT22;67903;52.108;9.358;2023-07-02T23:27:39;17.20;51.20
64987;DHT22;67903;52.108;9.358;2023-07-02T23:30:24;17.10;51.20
64987;DHT22;67903;52.108;9.358;2023-07-02T23:33:16;17.10;51.00
64987;DHT22;67903;52.108;9.358;2023-07-02T23:36:02;17.20;51.00
64987;DHT22;67903;52.108;9.358;2023-07-02T23:38:48;17.10;50.60
64987;DHT22;67903;52.108;9.358;2023-07-02T23:41:34;17.10;50.80
64987;DHT22;67903;52.108;9.358;2023-07-02T23:44:20;17.10;50.90
64987;DHT22;67903;52.108;9.358;2023-07-02T23:47:05;17.00;51.00
64987;DHT22;67903;52.108;9.358;2023-07-02T23:49:51;17.00;51.00
64987;DHT22;67903;52.108;9.358;2023-07-02T23:52:37;16.90;51.20
64987;DHT22;67903;52.108;9.358;2023-07-02T23:55:23;16.80;51.60
64987;DHT22;67903;52.108;9.358;2023-07-02T23:58:08;16.80;51.50
